sensor_id;sensor_type;location;lat;lon;timestamp;temperature;humidity
12688;DHT22;6408;59.388;17.798;2022-09-27T00:01:34;11.00;99.90
12688;DHT22;6408;59.388;17.798;2022-09-27T00:04:04;11.00;99.90
12688;DHT22;6408;59.388;17.798;2022-09-27T00:06:34;11.00;99.90
12688;DHT22;6408;59.388;17.798;2022-09-27T00:09:08;11.00;99.90
12688;DHT22;6408;59.388;17.798;2022-09-27T00:11:38;11.00;99.90
12688;DHT22;6408;59.388;17.798;2022-09-27T00:14:15;11.10;99.90
12688;DHT22;6408;59.388;17.798;2022-09-27T00:16:48;11.10;99.90
12688;DHT22;6408;59.388;17.798;2022-09-27T00:19:22;11.10;99.90
12688;DHT22;6408;59.388;17.798;2022-09-27T00:21:51;11.10;99.90
12688;DHT22;6408;59.388;17.798;2022-09-27T00:24:47;11.20;99.90
12688;DHT22;6408;59.388;17.798;2022-09-27T00:27:14;11.10;99.90
12688;DHT22;6408;59.388;17.798;2022-09-27T00:32:55;11.20;99.90
12688;DHT22;6408;59.388;17.798;2022-09-27T00:35:23;11.10;99.90
12688;DHT22;6408;59.388;17.798;2022-09-27T00:38:01;11.10;99.90
12688;DHT22;6408;59.388;17.798;2022-09-27T00:40:55;11.10;99.90
12688;DHT22;6408;59.388;17.798;2022-09-27T00:43:42;11.10;99.90
12688;DHT22;6408;59.388;17.798;2022-09-27T00:46:16;11.00;99.90
12688;DHT22;6408;59.388;17.798;2022-09-27T00:48:59;11.00;99.90
12688;DHT22;6408;59.388;17.798;2022-09-27T00:51:29;11.00;99.90
12688;DHT22;6408;59.388;17.798;2022-09-27T00:54:01;11.10;99.90
12688;DHT22;6408;59.388;17.798;2022-09-27T00:56:50;11.10;99.90
12688;DHT22;6408;59.388;17.798;2022-09-27T00:59:22;11.10;99.90
12688;DHT22;6408;59.388;17.798;2022-09-27T01:02:01;11.10;99.90
12688;DHT22;6408;59.388;17.798;2022-09-27T01:04:34;11.00;99.90
12688;DHT22;6408;59.388;17.798;2022-09-27T01:07:31;11.00;99.90
12688;DHT22;6408;59.388;17.798;2022-09-27T01:10:12;10.90;99.90
12688;DHT22;6408;59.388;17.798;2022-09-27T01:13:08;10.90;99.90
12688;DHT22;6408;59.388;17.798;2022-09-27T01:23:07;10.70;99.90
12688;DHT22;6408;59.388;17.798;2022-09-27T01:25:48;10.60;99.90
12688;DHT22;6408;59.388;17.798;2022-09-27T01:28:30;10.70;99.90
12688;DHT22;6408;59.388;17.798;2022-09-27T01:31:18;10.70;99.90
12688;DHT22;6408;59.388;17.798;2022-09-27T01:34:01;10.60;99.90
12688;DHT22;6408;59.388;17.798;2022-09-27T01:40:09;10.50;99.90
12688;DHT22;6408;59.388;17.798;2022-09-27T01:43:05;10.50;99.90
12688;DHT22;6408;59.388;17.798;2022-09-27T01:46:00;10.60;99.90
12688;DHT22;6408;59.388;17.798;2022-09-27T01:48:38;10.60;99.90
12688;DHT22;6408;59.388;17.798;2022-09-27T01:51:11;10.60;99.90
12688;DHT22;6408;59.388;17.798;2022-09-27T01:53:43;10.60;99.90
12688;DHT22;6408;59.388;17.798;2022-09-27T01:56:43;10.60;99.90
12688;DHT22;6408;59.388;17.798;2022-09-27T01:59:23;10.60;99.90
12688;DHT22;6408;59.388;17.798;2022-09-27T02:01:59;10.70;99.90
12688;DHT22;6408;59.388;17.798;2022-09-27T02:04:32;10.60;99.90
12688;DHT22;6408;59.388;17.798;2022-09-27T02:07:11;10.70;99.90
12688;DHT22;6408;59.388;17.798;2022-09-27T02:09:45;10.70;99.90
12688;DHT22;6408;59.388;17.798;2022-09-27T02:12:34;10.70;99.90
12688;DHT22;6408;59.388;17.798;2022-09-27T02:15:14;10.70;99.90
12688;DHT22;6408;59.388;17.798;2022-09-27T02:17:55;10.70;99.90
12688;DHT22;6408;59.388;17.798;2022-09-27T02:20:36;10.70;99.90
12688;DHT22;6408;59.388;17.798;2022-09-27T02:23:16;10.70;99.90
12688;DHT22;6408;59.388;17.798;2022-09-27T02:25:53;10.70;99.90
12688;DHT22;6408;59.388;17.798;2022-09-27T02:28:26;10.70;99.90
12688;DHT22;6408;59.388;17.798;2022-09-27T02:31:19;10.70;99.90
12688;DHT22;6408;59.388;17.798;2022-09-27T02:36:54;10.80;99.90
12688;DHT22;6408;59.388;17.798;2022-09-27T02:39:39;10.80;99.90
12688;DHT22;6408;59.388;17.798;2022-09-27T02:42:09;11.00;99.90
12688;DHT22;6408;59.388;17.798;2022-09-27T02:44:42;11.00;99.90
12688;DHT22;6408;59.388;17.798;2022-09-27T02:47:31;11.00;99.90
12688;DHT22;6408;59.388;17.798;2022-09-27T02:50:28;11.00;99.90
12688;DHT22;6408;59.388;17.798;2022-09-27T02:56:46;11.10;99.90
12688;DHT22;6408;59.388;17.798;2022-09-27T03:02:45;11.10;99.90
12688;DHT22;6408;59.388;17.798;2022-09-27T03:05:23;11.00;99.90
12688;DHT22;6408;59.388;17.798;2022-09-27T03:08:09;11.10;99.90
12688;DHT22;6408;59.388;17.798;2022-09-27T03:10:38;11.10;99.90
12688;DHT22;6408;59.388;17.798;2022-09-27T03:13:15;11.10;99.90
12688;DHT22;6408;59.388;17.798;2022-09-27T03:16:11;11.10;99.90
12688;DHT22;6408;59.388;17.798;2022-09-27T03:18:41;11.10;99.90
12688;DHT22;6408;59.388;17.798;2022-09-27T03:21:14;11.10;99.90
12688;DHT22;6408;59.388;17.798;2022-09-27T03:23:44;11.10;99.90
12688;DHT22;6408;59.388;17.798;2022-09-27T03:26:26;11.10;99.90
12688;DHT22;6408;59.388;17.798;2022-09-27T03:29:33;11.10;99.90
12688;DHT22;6408;59.388;17.798;2022-09-27T03:32:35;11.20;99.90
12688;DHT22;6408;59.388;17.798;2022-09-27T03:35:19;11.10;99.90
12688;DHT22;6408;59.388;17.798;2022-09-27T03:38:28;11.10;99.90
12688;DHT22;6408;59.388;17.798;2022-09-27T03:41:07;11.20;99.90
12688;DHT22;6408;59.388;17.798;2022-09-27T03:43:44;11.20;99.90
12688;DHT22;6408;59.388;17.798;2022-09-27T03:46:17;11.30;99.90
12688;DHT22;6408;59.388;17.798;2022-09-27T03:48:53;11.20;99.90
12688;DHT22;6408;59.388;17.798;2022-09-27T03:51:36;11.30;99.90
12688;DHT22;6408;59.388;17.798;2022-09-27T03:54:10;11.20;99.90
12688;DHT22;6408;59.388;17.798;2022-09-27T03:56:44;11.20;99.90
12688;DHT22;6408;59.388;17.798;2022-09-27T03:59:15;11.30;99.90
12688;DHT22;6408;59.388;17.798;2022-09-27T04:04:46;11.30;99.90
12688;DHT22;6408;59.388;17.798;2022-09-27T04:07:14;11.30;99.90
12688;DHT22;6408;59.388;17.798;2022-09-27T04:09:49;11.30;99.90
12688;DHT22;6408;59.388;17.798;2022-09-27T04:12:18;11.20;99.90
12688;DHT22;6408;59.388;17.798;2022-09-27T04:14:46;11.20;99.90
12688;DHT22;6408;59.388;17.798;2022-09-27T04:17:15;11.20;99.90
12688;DHT22;6408;59.388;17.798;2022-09-27T04:19:45;11.20;99.90
12688;DHT22;6408;59.388;17.798;2022-09-27T04:22:14;11.10;99.90
12688;DHT22;6408;59.388;17.798;2022-09-27T04:24:55;11.10;99.90
12688;DHT22;6408;59.388;17.798;2022-09-27T04:30:27;11.10;99.90
12688;DHT22;6408;59.388;17.798;2022-09-27T04:32:59;11.00;99.90
12688;DHT22;6408;59.388;17.798;2022-09-27T04:35:27;11.00;99.90
12688;DHT22;6408;59.388;17.798;2022-09-27T04:38:13;11.10;99.90
12688;DHT22;6408;59.388;17.798;2022-09-27T04:40:45;11.00;99.90
12688;DHT22;6408;59.388;17.798;2022-09-27T04:43:13;11.10;99.90
12688;DHT22;6408;59.388;17.798;2022-09-27T04:45:46;11.00;99.90
12688;DHT22;6408;59.388;17.798;2022-09-27T04:48:15;11.10;99.90
12688;DHT22;6408;59.388;17.798;2022-09-27T04:50:46;11.00;99.90
12688;DHT22;6408;59.388;17.798;2022-09-27T04:53:14;11.00;99.90
12688;DHT22;6408;59.388;17.798;2022-09-27T04:55:48;11.00;99.90
12688;DHT22;6408;59.388;17.798;2022-09-27T04:58:22;11.00;99.90
12688;DHT22;6408;59.388;17.798;2022-09-27T05:01:01;11.00;99.90
12688;DHT22;6408;59.388;17.798;2022-09-27T05:03:35;11.00;99.90
12688;DHT22;6408;59.388;17.798;2022-09-27T05:06:18;11.00;99.90
12688;DHT22;6408;59.388;17.798;2022-09-27T05:08:49;11.00;99.90
12688;DHT22;6408;59.388;17.798;2022-09-27T05:11:33;11.00;99.90
12688;DHT22;6408;59.388;17.798;2022-09-27T05:14:02;10.90;99.90
12688;DHT22;6408;59.388;17.798;2022-09-27T05:16:30;10.90;99.90
12688;DHT22;6408;59.388;17.798;2022-09-27T05:19:00;10.90;99.90
12688;DHT22;6408;59.388;17.798;2022-09-27T05:21:27;10.90;99.90
12688;DHT22;6408;59.388;17.798;2022-09-27T05:23:55;10.90;99.90
12688;DHT22;6408;59.388;17.798;2022-09-27T05:26:22;10.90;99.90
12688;DHT22;6408;59.388;17.798;2022-09-27T05:28:50;10.90;99.90
12688;DHT22;6408;59.388;17.798;2022-09-27T05:31:17;10.90;99.90
12688;DHT22;6408;59.388;17.798;2022-09-27T05:33:45;10.90;99.90
12688;DHT22;6408;59.388;17.798;2022-09-27T05:36:13;11.00;99.90
12688;DHT22;6408;59.388;17.798;2022-09-27T05:38:41;11.00;99.90
12688;DHT22;6408;59.388;17.798;2022-09-27T05:41:09;11.10;99.90
12688;DHT22;6408;59.388;17.798;2022-09-27T05:43:36;11.10;99.90
12688;DHT22;6408;59.388;17.798;2022-09-27T05:46:03;11.10;99.90
12688;DHT22;6408;59.388;17.798;2022-09-27T05:48:44;11.10;99.90
12688;DHT22;6408;59.388;17.798;2022-09-27T05:51:13;11.20;99.90
12688;DHT22;6408;59.388;17.798;2022-09-27T05:53:41;11.30;99.90
12688;DHT22;6408;59.388;17.798;2022-09-27T05:56:08;11.30;99.90
12688;DHT22;6408;59.388;17.798;2022-09-27T05:58:35;11.40;99.90
12688;DHT22;6408;59.388;17.798;2022-09-27T06:01:05;11.50;99.90
12688;DHT22;6408;59.388;17.798;2022-09-27T06:03:36;11.80;99.90
12688;DHT22;6408;59.388;17.798;2022-09-27T06:06:06;12.20;99.90
12688;DHT22;6408;59.388;17.798;2022-09-27T06:08:37;12.40;99.90
12688;DHT22;6408;59.388;17.798;2022-09-27T06:11:07;12.60;99.90
12688;DHT22;6408;59.388;17.798;2022-09-27T08:01:54;14.20;99.90
12688;DHT22;6408;59.388;17.798;2022-09-27T08:04:24;14.10;99.90
12688;DHT22;6408;59.388;17.798;2022-09-27T08:06:53;14.10;99.90
12688;DHT22;6408;59.388;17.798;2022-09-27T08:09:23;14.20;99.90
12688;DHT22;6408;59.388;17.798;2022-09-27T08:11:55;14.20;99.90
12688;DHT22;6408;59.388;17.798;2022-09-27T08:14:24;14.30;99.90
12688;DHT22;6408;59.388;17.798;2022-09-27T08:17:09;14.40;99.90
12688;DHT22;6408;59.388;17.798;2022-09-27T08:19:39;14.40;99.90
12688;DHT22;6408;59.388;17.798;2022-09-27T08:22:22;14.30;99.90
12688;DHT22;6408;59.388;17.798;2022-09-27T08:24:57;14.10;99.90
12688;DHT22;6408;59.388;17.798;2022-09-27T08:27:26;14.10;99.90
12688;DHT22;6408;59.388;17.798;2022-09-27T08:29:54;14.10;99.90
12688;DHT22;6408;59.388;17.798;2022-09-27T08:32:32;14.20;99.90
12688;DHT22;6408;59.388;17.798;2022-09-27T08:34:59;14.10;99.90
12688;DHT22;6408;59.388;17.798;2022-09-27T08:37:29;14.10;99.90
12688;DHT22;6408;59.388;17.798;2022-09-27T08:39:58;14.10;99.90
12688;DHT22;6408;59.388;17.798;2022-09-27T08:42:31;14.20;99.90
12688;DHT22;6408;59.388;17.798;2022-09-27T08:45:12;14.30;99.90
12688;DHT22;6408;59.388;17.798;2022-09-27T08:47:58;14.20;99.90
12688;DHT22;6408;59.388;17.798;2022-09-27T08:50:28;14.20;99.90
12688;DHT22;6408;59.388;17.798;2022-09-27T08:53:03;14.20;99.90
12688;DHT22;6408;59.388;17.798;2022-09-27T08:55:36;14.30;99.90
12688;DHT22;6408;59.388;17.798;2022-09-27T08:58:12;14.40;99.90
12688;DHT22;6408;59.388;17.798;2022-09-27T09:00:42;14.40;99.90
12688;DHT22;6408;59.388;17.798;2022-09-27T09:03:17;14.50;99.90
12688;DHT22;6408;59.388;17.798;2022-09-27T09:05:59;14.50;99.90
12688;DHT22;6408;59.388;17.798;2022-09-27T09:08:34;15.30;99.90
12688;DHT22;6408;59.388;17.798;2022-09-27T09:11:13;16.60;99.90
12688;DHT22;6408;59.388;17.798;2022-09-27T09:17:15;17.10;99.90
12688;DHT22;6408;59.388;17.798;2022-09-27T09:20:09;17.60;99.90
12688;DHT22;6408;59.388;17.798;2022-09-27T09:23:08;18.50;99.90
12688;DHT22;6408;59.388;17.798;2022-09-27T09:25:56;16.90;99.90
12688;DHT22;6408;59.388;17.798;2022-09-27T09:28:34;15.80;99.90
12688;DHT22;6408;59.388;17.798;2022-09-27T09:31:11;15.60;99.90
12688;DHT22;6408;59.388;17.798;2022-09-27T09:33:47;15.20;99.90
12688;DHT22;6408;59.388;17.798;2022-09-27T09:36:29;15.00;99.90
12688;DHT22;6408;59.388;17.798;2022-09-27T09:39:09;14.90;99.90
12688;DHT22;6408;59.388;17.798;2022-09-27T09:41:42;14.80;99.90
12688;DHT22;6408;59.388;17.798;2022-09-27T09:44:20;14.70;99.90
12688;DHT22;6408;59.388;17.798;2022-09-27T09:46:59;14.70;99.90
12688;DHT22;6408;59.388;17.798;2022-09-27T09:49:34;15.30;99.90
12688;DHT22;6408;59.388;17.798;2022-09-27T09:52:10;15.30;99.90
12688;DHT22;6408;59.388;17.798;2022-09-27T09:54:42;15.20;99.90
12688;DHT22;6408;59.388;17.798;2022-09-27T09:57:20;15.10;99.90
12688;DHT22;6408;59.388;17.798;2022-09-27T10:00:06;15.10;99.90
12688;DHT22;6408;59.388;17.798;2022-09-27T10:02:59;15.10;99.90
12688;DHT22;6408;59.388;17.798;2022-09-27T10:05:27;15.00;99.90
12688;DHT22;6408;59.388;17.798;2022-09-27T10:08:03;14.90;99.90
12688;DHT22;6408;59.388;17.798;2022-09-27T10:10:32;14.90;99.90
12688;DHT22;6408;59.388;17.798;2022-09-27T10:13:07;14.70;99.90
12688;DHT22;6408;59.388;17.798;2022-09-27T10:15:39;14.60;99.90
12688;DHT22;6408;59.388;17.798;2022-09-27T10:18:12;14.60;99.90
12688;DHT22;6408;59.388;17.798;2022-09-27T10:20:45;14.60;99.90
12688;DHT22;6408;59.388;17.798;2022-09-27T10:23:18;14.50;99.90
12688;DHT22;6408;59.388;17.798;2022-09-27T10:25:50;14.40;99.90
12688;DHT22;6408;59.388;17.798;2022-09-27T10:28:31;14.20;99.90
12688;DHT22;6408;59.388;17.798;2022-09-27T10:31:11;14.10;99.90
12688;DHT22;6408;59.388;17.798;2022-09-27T10:33:53;14.00;99.90
12688;DHT22;6408;59.388;17.798;2022-09-27T10:36:27;13.90;99.90
12688;DHT22;6408;59.388;17.798;2022-09-27T10:39:21;13.90;99.90
12688;DHT22;6408;59.388;17.798;2022-09-27T10:42:05;13.70;99.90
12688;DHT22;6408;59.388;17.798;2022-09-27T10:44:47;13.70;99.90
12688;DHT22;6408;59.388;17.798;2022-09-27T10:47:38;13.70;99.90
12688;DHT22;6408;59.388;17.798;2022-09-27T10:50:20;13.70;99.90
12688;DHT22;6408;59.388;17.798;2022-09-27T10:53:00;13.80;99.90
12688;DHT22;6408;59.388;17.798;2022-09-27T10:55:36;13.80;99.90
12688;DHT22;6408;59.388;17.798;2022-09-27T10:58:05;13.80;99.90
12688;DHT22;6408;59.388;17.798;2022-09-27T11:00:36;13.90;99.90
12688;DHT22;6408;59.388;17.798;2022-09-27T11:03:07;13.90;99.90
12688;DHT22;6408;59.388;17.798;2022-09-27T11:05:43;13.80;99.90
12688;DHT22;6408;59.388;17.798;2022-09-27T11:08:23;13.70;99.90
12688;DHT22;6408;59.388;17.798;2022-09-27T11:11:17;13.70;99.90
12688;DHT22;6408;59.388;17.798;2022-09-27T11:13:58;13.70;99.90
12688;DHT22;6408;59.388;17.798;2022-09-27T11:16:54;13.70;99.90
12688;DHT22;6408;59.388;17.798;2022-09-27T11:19:46;13.70;99.90
12688;DHT22;6408;59.388;17.798;2022-09-27T11:22:38;13.70;99.90
12688;DHT22;6408;59.388;17.798;2022-09-27T11:25:19;13.90;99.90
12688;DHT22;6408;59.388;17.798;2022-09-27T11:27:59;14.00;99.90
12688;DHT22;6408;59.388;17.798;2022-09-27T11:30:35;14.10;99.90
12688;DHT22;6408;59.388;17.798;2022-09-27T11:33:43;14.20;99.90
12688;DHT22;6408;59.388;17.798;2022-09-27T11:36:22;14.20;99.90
12688;DHT22;6408;59.388;17.798;2022-09-27T11:39:00;14.20;99.90
12688;DHT22;6408;59.388;17.798;2022-09-27T11:41:47;14.50;99.90
12688;DHT22;6408;59.388;17.798;2022-09-27T11:47:23;14.60;99.90
12688;DHT22;6408;59.388;17.798;2022-09-27T11:50:17;14.60;99.90
12688;DHT22;6408;59.388;17.798;2022-09-27T11:52:59;14.80;99.90
12688;DHT22;6408;59.388;17.798;2022-09-27T11:55:38;15.00;99.90
12688;DHT22;6408;59.388;17.798;2022-09-27T11:58:14;15.00;99.90
12688;DHT22;6408;59.388;17.798;2022-09-27T12:00:56;15.00;99.90
12688;DHT22;6408;59.388;17.798;2022-09-27T12:03:49;15.00;99.90
12688;DHT22;6408;59.388;17.798;2022-09-27T12:06:21;14.90;99.90
12688;DHT22;6408;59.388;17.798;2022-09-27T12:09:02;15.00;99.90
12688;DHT22;6408;59.388;17.798;2022-09-27T12:11:38;15.10;99.90
12688;DHT22;6408;59.388;17.798;2022-09-27T12:14:11;15.20;99.90
12688;DHT22;6408;59.388;17.798;2022-09-27T12:16:43;15.20;99.90
12688;DHT22;6408;59.388;17.798;2022-09-27T12:19:16;15.00;99.90
12688;DHT22;6408;59.388;17.798;2022-09-27T12:21:44;15.00;99.90
12688;DHT22;6408;59.388;17.798;2022-09-27T12:24:18;14.90;99.90
12688;DHT22;6408;59.388;17.798;2022-09-27T12:26:48;14.90;99.90
12688;DHT22;6408;59.388;17.798;2022-09-27T12:29:21;15.00;99.90
12688;DHT22;6408;59.388;17.798;2022-09-27T12:31:56;15.00;99.90
12688;DHT22;6408;59.388;17.798;2022-09-27T12:34:34;15.00;99.90
12688;DHT22;6408;59.388;17.798;2022-09-27T12:37:09;14.90;99.90
12688;DHT22;6408;59.388;17.798;2022-09-27T12:39:46;14.80;99.90
12688;DHT22;6408;59.388;17.798;2022-09-27T12:42:19;14.80;99.90
12688;DHT22;6408;59.388;17.798;2022-09-27T12:44:47;14.90;99.90
12688;DHT22;6408;59.388;17.798;2022-09-27T12:47:26;14.90;99.90
12688;DHT22;6408;59.388;17.798;2022-09-27T12:50:03;15.00;99.90
12688;DHT22;6408;59.388;17.798;2022-09-27T12:52:37;15.00;99.90
12688;DHT22;6408;59.388;17.798;2022-09-27T12:55:50;15.00;99.90
12688;DHT22;6408;59.388;17.798;2022-09-27T12:58:51;15.10;99.90
12688;DHT22;6408;59.388;17.798;2022-09-27T13:01:33;15.20;99.90
12688;DHT22;6408;59.388;17.798;2022-09-27T13:04:30;15.30;99.90
12688;DHT22;6408;59.388;17.798;2022-09-27T13:07:20;15.30;99.90
12688;DHT22;6408;59.388;17.798;2022-09-27T13:10:19;15.30;99.90
12688;DHT22;6408;59.388;17.798;2022-09-27T13:12:54;15.30;99.90
12688;DHT22;6408;59.388;17.798;2022-09-27T13:15:27;15.40;99.90
12688;DHT22;6408;59.388;17.798;2022-09-27T13:17:56;15.40;99.90
12688;DHT22;6408;59.388;17.798;2022-09-27T13:20:41;15.40;99.90
12688;DHT22;6408;59.388;17.798;2022-09-27T13:26:42;15.60;99.90
12688;DHT22;6408;59.388;17.798;2022-09-27T13:29:31;15.80;99.90
12688;DHT22;6408;59.388;17.798;2022-09-27T13:32:27;15.90;99.90
12688;DHT22;6408;59.388;17.798;2022-09-27T13:34:57;15.90;99.90
12688;DHT22;6408;59.388;17.798;2022-09-27T13:40:31;16.00;99.90
12688;DHT22;6408;59.388;17.798;2022-09-27T13:43:31;16.10;99.90
12688;DHT22;6408;59.388;17.798;2022-09-27T13:46:02;16.00;99.90
12688;DHT22;6408;59.388;17.798;2022-09-27T13:48:42;16.00;99.90
12688;DHT22;6408;59.388;17.798;2022-09-27T13:51:23;15.80;99.90
12688;DHT22;6408;59.388;17.798;2022-09-27T13:53:59;15.70;99.90
12688;DHT22;6408;59.388;17.798;2022-09-27T13:56:48;15.70;99.90
12688;DHT22;6408;59.388;17.798;2022-09-27T13:59:17;15.60;99.90
12688;DHT22;6408;59.388;17.798;2022-09-27T14:01:49;15.70;99.90
12688;DHT22;6408;59.388;17.798;2022-09-27T14:04:22;15.70;99.90
12688;DHT22;6408;59.388;17.798;2022-09-27T14:06:54;15.80;99.90
12688;DHT22;6408;59.388;17.798;2022-09-27T14:09:26;15.90;99.90
12688;DHT22;6408;59.388;17.798;2022-09-27T14:11:57;15.80;99.90
12688;DHT22;6408;59.388;17.798;2022-09-27T14:14:28;15.80;99.90
12688;DHT22;6408;59.388;17.798;2022-09-27T14:16:58;15.70;99.90
12688;DHT22;6408;59.388;17.798;2022-09-27T14:19:27;15.60;99.90
12688;DHT22;6408;59.388;17.798;2022-09-27T14:21:56;15.60;99.90
12688;DHT22;6408;59.388;17.798;2022-09-27T14:24:28;15.60;99.90
12688;DHT22;6408;59.388;17.798;2022-09-27T14:27:05;15.50;99.90
12688;DHT22;6408;59.388;17.798;2022-09-27T14:29:39;15.60;99.90
12688;DHT22;6408;59.388;17.798;2022-09-27T14:32:11;15.60;99.90
12688;DHT22;6408;59.388;17.798;2022-09-27T14:34:40;15.50;99.90
12688;DHT22;6408;59.388;17.798;2022-09-27T14:37:20;15.40;99.90
12688;DHT22;6408;59.388;17.798;2022-09-27T14:39:55;15.20;99.90
12688;DHT22;6408;59.388;17.798;2022-09-27T14:42:25;15.20;99.90
12688;DHT22;6408;59.388;17.798;2022-09-27T14:44:55;15.10;99.90
12688;DHT22;6408;59.388;17.798;2022-09-27T14:47:26;15.10;99.90
12688;DHT22;6408;59.388;17.798;2022-09-27T14:49:58;15.00;99.90
12688;DHT22;6408;59.388;17.798;2022-09-27T14:52:28;15.00;99.90
12688;DHT22;6408;59.388;17.798;2022-09-27T14:54:59;14.90;99.90
12688;DHT22;6408;59.388;17.798;2022-09-27T14:57:28;14.80;99.90
12688;DHT22;6408;59.388;17.798;2022-09-27T14:59:58;14.80;99.90
12688;DHT22;6408;59.388;17.798;2022-09-27T15:02:28;14.80;99.90
12688;DHT22;6408;59.388;17.798;2022-09-27T15:04:59;14.80;99.90
12688;DHT22;6408;59.388;17.798;2022-09-27T15:07:27;14.80;99.90
12688;DHT22;6408;59.388;17.798;2022-09-27T15:09:55;14.80;99.90
12688;DHT22;6408;59.388;17.798;2022-09-27T15:12:25;14.60;99.90
12688;DHT22;6408;59.388;17.798;2022-09-27T15:14:54;14.60;99.90
12688;DHT22;6408;59.388;17.798;2022-09-27T15:17:24;14.60;99.90
12688;DHT22;6408;59.388;17.798;2022-09-27T15:20:22;14.50;99.90
12688;DHT22;6408;59.388;17.798;2022-09-27T15:22:52;14.50;99.90
12688;DHT22;6408;59.388;17.798;2022-09-27T15:25:24;14.50;99.90
12688;DHT22;6408;59.388;17.798;2022-09-27T15:27:57;14.50;99.90
12688;DHT22;6408;59.388;17.798;2022-09-27T15:30:27;14.40;99.90
12688;DHT22;6408;59.388;17.798;2022-09-27T15:32:56;14.40;99.90
12688;DHT22;6408;59.388;17.798;2022-09-27T15:35:28;14.40;99.90
12688;DHT22;6408;59.388;17.798;2022-09-27T15:38:21;14.30;99.90
12688;DHT22;6408;59.388;17.798;2022-09-27T15:41:01;14.30;99.90
12688;DHT22;6408;59.388;17.798;2022-09-27T15:43:41;14.20;99.90
12688;DHT22;6408;59.388;17.798;2022-09-27T15:46:33;14.20;99.90
12688;DHT22;6408;59.388;17.798;2022-09-27T15:49:22;14.20;99.90
12688;DHT22;6408;59.388;17.798;2022-09-27T15:51:57;14.20;99.90
12688;DHT22;6408;59.388;17.798;2022-09-27T15:54:26;14.20;99.90
12688;DHT22;6408;59.388;17.798;2022-09-27T15:56:56;14.10;99.90
12688;DHT22;6408;59.388;17.798;2022-09-27T15:59:30;14.10;99.90
12688;DHT22;6408;59.388;17.798;2022-09-27T16:02:02;14.10;99.90
12688;DHT22;6408;59.388;17.798;2022-09-27T16:04:30;14.00;99.90
12688;DHT22;6408;59.388;17.798;2022-09-27T16:07:00;14.00;99.90
12688;DHT22;6408;59.388;17.798;2022-09-27T16:09:28;14.00;99.90
12688;DHT22;6408;59.388;17.798;2022-09-27T16:11:55;13.90;99.90
12688;DHT22;6408;59.388;17.798;2022-09-27T16:14:23;13.90;99.90
12688;DHT22;6408;59.388;17.798;2022-09-27T16:16:52;13.90;99.90
12688;DHT22;6408;59.388;17.798;2022-09-27T16:19:21;13.80;99.90
12688;DHT22;6408;59.388;17.798;2022-09-27T16:21:48;13.90;99.90
12688;DHT22;6408;59.388;17.798;2022-09-27T16:24:17;13.80;99.90
12688;DHT22;6408;59.388;17.798;2022-09-27T16:26:45;13.80;99.90
12688;DHT22;6408;59.388;17.798;2022-09-27T16:29:14;13.70;99.90
12688;DHT22;6408;59.388;17.798;2022-09-27T16:32:03;13.70;99.90
12688;DHT22;6408;59.388;17.798;2022-09-27T16:34:31;13.70;99.90
12688;DHT22;6408;59.388;17.798;2022-09-27T16:36:58;13.60;99.90
12688;DHT22;6408;59.388;17.798;2022-09-27T16:39:27;13.60;99.90
12688;DHT22;6408;59.388;17.798;2022-09-27T16:41:54;13.50;99.90
12688;DHT22;6408;59.388;17.798;2022-09-27T16:44:22;13.50;99.90
12688;DHT22;6408;59.388;17.798;2022-09-27T16:46:49;13.40;99.90
12688;DHT22;6408;59.388;17.798;2022-09-27T16:49:16;13.40;99.90
12688;DHT22;6408;59.388;17.798;2022-09-27T16:52:01;13.40;99.90
12688;DHT22;6408;59.388;17.798;2022-09-27T16:54:39;13.40;99.90
12688;DHT22;6408;59.388;17.798;2022-09-27T16:57:07;13.30;99.90
12688;DHT22;6408;59.388;17.798;2022-09-27T16:59:34;13.30;99.90
12688;DHT22;6408;59.388;17.798;2022-09-27T17:02:02;13.30;99.90
12688;DHT22;6408;59.388;17.798;2022-09-27T17:04:30;13.30;99.90
12688;DHT22;6408;59.388;17.798;2022-09-27T17:06:58;13.30;99.90
12688;DHT22;6408;59.388;17.798;2022-09-27T17:09:25;13.20;99.90
12688;DHT22;6408;59.388;17.798;2022-09-27T17:11:54;13.20;99.90
12688;DHT22;6408;59.388;17.798;2022-09-27T17:14:22;13.10;99.90
12688;DHT22;6408;59.388;17.798;2022-09-27T17:16:52;13.20;99.90
12688;DHT22;6408;59.388;17.798;2022-09-27T17:19:19;13.10;99.90
12688;DHT22;6408;59.388;17.798;2022-09-27T17:21:48;13.00;99.90
12688;DHT22;6408;59.388;17.798;2022-09-27T17:24:15;13.00;99.90
12688;DHT22;6408;59.388;17.798;2022-09-27T17:26:42;13.00;99.90
12688;DHT22;6408;59.388;17.798;2022-09-27T17:29:12;12.90;99.90
12688;DHT22;6408;59.388;17.798;2022-09-27T17:31:41;12.90;99.90
12688;DHT22;6408;59.388;17.798;2022-09-27T17:34:13;12.90;99.90
12688;DHT22;6408;59.388;17.798;2022-09-27T17:36:43;12.90;99.90
12688;DHT22;6408;59.388;17.798;2022-09-27T17:39:13;12.90;99.90
12688;DHT22;6408;59.388;17.798;2022-09-27T17:41:41;12.80;99.90
12688;DHT22;6408;59.388;17.798;2022-09-27T17:44:12;12.80;99.90
12688;DHT22;6408;59.388;17.798;2022-09-27T17:46:41;12.80;99.90
12688;DHT22;6408;59.388;17.798;2022-09-27T17:49:09;12.80;99.90
12688;DHT22;6408;59.388;17.798;2022-09-27T17:51:53;12.80;99.90
12688;DHT22;6408;59.388;17.798;2022-09-27T17:54:22;12.70;99.90
12688;DHT22;6408;59.388;17.798;2022-09-27T17:56:52;12.70;99.90
12688;DHT22;6408;59.388;17.798;2022-09-27T17:59:22;12.60;99.90
12688;DHT22;6408;59.388;17.798;2022-09-27T18:01:50;12.60;99.90
12688;DHT22;6408;59.388;17.798;2022-09-27T18:04:18;12.60;99.90
12688;DHT22;6408;59.388;17.798;2022-09-27T18:06:46;12.50;99.90
12688;DHT22;6408;59.388;17.798;2022-09-27T18:09:14;12.60;99.90
12688;DHT22;6408;59.388;17.798;2022-09-27T18:11:42;12.50;99.90
12688;DHT22;6408;59.388;17.798;2022-09-27T18:14:10;12.50;99.90
12688;DHT22;6408;59.388;17.798;2022-09-27T18:16:40;12.50;99.90
12688;DHT22;6408;59.388;17.798;2022-09-27T18:19:10;12.60;99.90
12688;DHT22;6408;59.388;17.798;2022-09-27T18:21:38;12.60;99.90
12688;DHT22;6408;59.388;17.798;2022-09-27T18:24:06;12.60;99.90
12688;DHT22;6408;59.388;17.798;2022-09-27T18:26:35;12.70;99.90
12688;DHT22;6408;59.388;17.798;2022-09-27T18:29:04;12.70;99.90
12688;DHT22;6408;59.388;17.798;2022-09-27T18:31:32;12.70;99.90
12688;DHT22;6408;59.388;17.798;2022-09-27T18:34:02;12.70;99.90
12688;DHT22;6408;59.388;17.798;2022-09-27T18:36:29;12.80;99.90
12688;DHT22;6408;59.388;17.798;2022-09-27T18:38:57;12.70;99.90
12688;DHT22;6408;59.388;17.798;2022-09-27T18:41:26;12.80;99.90
12688;DHT22;6408;59.388;17.798;2022-09-27T18:43:54;12.80;99.90
12688;DHT22;6408;59.388;17.798;2022-09-27T18:46:24;12.80;99.90
12688;DHT22;6408;59.388;17.798;2022-09-27T18:48:52;12.80;99.90
12688;DHT22;6408;59.388;17.798;2022-09-27T18:51:22;12.80;99.90
12688;DHT22;6408;59.388;17.798;2022-09-27T18:53:53;12.80;99.90